createdAt,value
2023-05-11T00:00:38.335Z,6.65
2023-05-11T00:03:05.158Z,6.13
2023-05-11T00:05:31.774Z,5.70
2023-05-11T00:07:58.391Z,5.93
2023-05-11T00:10:24.924Z,5.32
2023-05-11T00:12:51.505Z,6.90
2023-05-11T00:15:18.040Z,6.00
2023-05-11T00:17:45.347Z,5.40
2023-05-11T00:20:11.989Z,5.60
2023-05-11T00:22:39.332Z,6.78
2023-05-11T00:25:06.772Z,6.63
2023-05-11T00:27:33.548Z,4.95
2023-05-11T00:30:00.384Z,6.15
2023-05-11T00:32:26.990Z,5.88
2023-05-11T00:34:53.486Z,5.13
2023-05-11T00:37:20.142Z,6.28
2023-05-11T00:39:46.686Z,6.00
2023-05-11T00:42:13.204Z,6.63
2023-05-11T00:44:39.803Z,6.25
2023-05-11T00:47:07.220Z,5.78
2023-05-11T00:49:33.904Z,5.00
2023-05-11T00:52:03.089Z,6.60
2023-05-11T00:54:30.888Z,5.45
2023-05-11T00:56:57.544Z,6.32
2023-05-11T00:59:24.213Z,6.45
2023-05-11T01:01:51.178Z,4.90
2023-05-11T01:04:17.849Z,5.93
2023-05-11T01:07:06.449Z,5.55
2023-05-11T01:09:44.832Z,6.28
2023-05-11T01:12:44.093Z,5.82
2023-05-11T01:15:14.372Z,6.47
2023-05-11T01:18:26.533Z,5.45
2023-05-11T01:20:58.461Z,5.65
2023-05-11T01:24:03.927Z,5.93
2023-05-11T01:26:47.125Z,5.28
2023-05-11T01:29:49.243Z,5.63
2023-05-11T01:32:20.404Z,4.55
2023-05-11T01:37:22.938Z,6.03
2023-05-11T01:39:54.359Z,5.38
2023-05-11T01:42:26.281Z,5.28
2023-05-11T01:44:55.317Z,6.30
2023-05-11T01:47:25.149Z,5.60
2023-05-11T01:49:54.192Z,5.80
2023-05-11T01:52:23.540Z,7.70
2023-05-11T01:54:52.849Z,5.72
2023-05-11T01:57:21.302Z,5.35
2023-05-11T01:59:50.215Z,5.28
2023-05-11T02:02:18.692Z,5.13
2023-05-11T02:04:46.565Z,5.65
2023-05-11T02:07:14.907Z,5.10
2023-05-11T02:09:42.818Z,5.05
2023-05-11T02:12:11.386Z,5.78
2023-05-11T02:14:40.369Z,5.70
2023-05-11T02:17:08.783Z,5.90
2023-05-11T02:19:37.635Z,5.95
2023-05-11T02:22:06.008Z,6.53
2023-05-11T02:24:33.850Z,5.90
2023-05-11T02:27:02.123Z,5.85
2023-05-11T02:29:29.125Z,5.78
2023-05-11T02:32:09.732Z,4.60
2023-05-11T02:34:43.333Z,5.43
2023-05-11T02:37:18.490Z,6.05
2023-05-11T02:39:48.360Z,6.55
2023-05-11T02:42:20.966Z,5.53
2023-05-11T02:45:04.944Z,6.70
2023-05-11T02:47:39.438Z,5.78
2023-05-11T02:50:09.028Z,6.18
2023-05-11T02:52:43.172Z,5.15
2023-05-11T02:55:11.904Z,5.60
2023-05-11T02:57:39.004Z,5.15
2023-05-11T03:00:10.349Z,5.85
2023-05-11T03:02:37.117Z,6.95
2023-05-11T03:05:05.171Z,6.55
2023-05-11T03:07:33.312Z,6.25
2023-05-11T03:10:00.843Z,8.30
2023-05-11T03:12:33.926Z,6.32
2023-05-11T03:17:35.222Z,7.27
2023-05-11T03:20:04.117Z,6.20
2023-05-11T03:22:31.724Z,6.28
2023-05-11T03:24:59.143Z,6.43
2023-05-11T03:27:27.585Z,7.10
2023-05-11T03:29:56.871Z,5.80
2023-05-11T03:32:24.296Z,6.18
2023-05-11T03:34:52.182Z,6.03
2023-05-11T03:37:19.527Z,6.53
2023-05-11T03:39:48.296Z,6.43
2023-05-11T03:42:15.584Z,7.03
2023-05-11T03:44:46.176Z,6.53
2023-05-11T03:47:14.698Z,6.05
2023-05-11T03:49:42.420Z,6.35
2023-05-11T03:52:10.684Z,6.45
2023-05-11T03:54:37.792Z,6.45
2023-05-11T03:57:04.643Z,7.13
2023-05-11T03:59:31.714Z,7.03
2023-05-11T04:02:01.207Z,6.68
2023-05-11T04:04:30.625Z,5.53
2023-05-11T04:06:59.356Z,7.28
2023-05-11T04:09:26.253Z,6.65
2023-05-11T04:11:53.115Z,6.72
2023-05-11T04:14:20.676Z,5.97
2023-05-11T04:16:47.974Z,7.10
2023-05-11T04:19:15.497Z,7.53
2023-05-11T04:21:42.189Z,6.82
2023-05-11T04:24:09.014Z,6.50
2023-05-11T04:26:35.573Z,7.20
2023-05-11T04:29:03.737Z,7.90
2023-05-11T04:31:30.593Z,7.18
2023-05-11T04:33:57.749Z,7.03
2023-05-11T04:36:24.958Z,6.40
2023-05-11T04:38:53.568Z,7.03
2023-05-11T04:41:20.772Z,7.22
2023-05-11T04:43:48.177Z,6.75
2023-05-11T04:46:15.342Z,8.18
2023-05-11T04:48:42.355Z,7.35
2023-05-11T04:51:09.969Z,7.18
2023-05-11T04:53:42.417Z,6.57
2023-05-11T04:56:09.451Z,7.03
2023-05-11T04:58:36.020Z,7.50
2023-05-11T05:01:05.956Z,7.32
2023-05-11T05:03:32.625Z,7.57
2023-05-11T05:05:59.127Z,7.30
2023-05-11T05:08:25.866Z,7.82
2023-05-11T05:10:52.467Z,6.95
2023-05-11T05:13:19.162Z,6.63
2023-05-11T05:15:45.993Z,7.93
2023-05-11T05:18:12.756Z,7.00
2023-05-11T05:20:39.695Z,7.75
2023-05-11T05:23:06.451Z,7.00
2023-05-11T05:25:33.990Z,6.63
2023-05-11T05:28:00.813Z,7.20
2023-05-11T05:30:27.870Z,7.70
2023-05-11T05:32:55.179Z,8.02
2023-05-11T05:35:22.296Z,8.38
2023-05-11T05:37:49.348Z,6.63
2023-05-11T05:40:16.857Z,7.97
2023-05-11T05:42:50.283Z,7.78
2023-05-11T05:45:20.800Z,7.60
2023-05-11T05:47:49.051Z,7.18
2023-05-11T05:50:16.290Z,8.00
2023-05-11T05:52:43.654Z,7.65
2023-05-11T05:55:11.643Z,9.32
2023-05-11T05:57:39.437Z,7.53
2023-05-11T06:00:09.618Z,8.30
2023-05-11T06:02:42.376Z,7.72
2023-05-11T06:05:17.695Z,7.45
2023-05-11T06:07:51.525Z,7.85
2023-05-11T06:10:25.101Z,7.82
2023-05-11T06:12:51.669Z,7.30
2023-05-11T06:15:18.398Z,7.43
2023-05-11T06:17:50.003Z,7.45
2023-05-11T06:20:17.479Z,8.13
2023-05-11T06:22:44.108Z,7.68
2023-05-11T06:25:11.624Z,7.80
2023-05-11T06:27:39.601Z,8.32
2023-05-11T06:30:07.465Z,7.93
2023-05-11T06:32:36.359Z,7.50
2023-05-11T06:35:03.572Z,8.10
2023-05-11T06:37:30.683Z,8.30
2023-05-11T06:39:58.960Z,7.97
2023-05-11T06:42:26.886Z,8.07
2023-05-11T06:45:04.389Z,8.88
2023-05-11T06:47:30.969Z,7.30
2023-05-11T06:49:58.198Z,8.68
2023-05-11T06:52:24.831Z,7.97
2023-05-11T06:54:51.958Z,8.20
2023-05-11T06:57:19.262Z,8.38
2023-05-11T07:02:09.640Z,7.85
2023-05-11T07:04:37.178Z,8.25
2023-05-11T07:07:04.037Z,8.38
2023-05-11T07:09:30.638Z,8.95
2023-05-11T07:11:57.773Z,8.00
2023-05-11T07:14:24.400Z,8.45
2023-05-11T07:16:53.098Z,7.40
2023-05-11T07:19:19.709Z,7.72
2023-05-11T07:21:46.348Z,8.52
2023-05-11T07:24:13.156Z,7.85
2023-05-11T07:26:39.669Z,6.30
2023-05-11T07:29:06.415Z,6.88
2023-05-11T07:31:35.489Z,6.43
2023-05-11T07:34:02.795Z,6.60
2023-05-11T07:36:29.932Z,8.90
2023-05-11T07:38:57.910Z,7.68
2023-05-11T07:41:26.815Z,5.57
2023-05-11T07:43:56.793Z,6.53
2023-05-11T07:46:23.404Z,5.78
2023-05-11T07:48:57.397Z,6.45
2023-05-11T07:51:30.942Z,6.03
2023-05-11T07:53:57.541Z,5.13
2023-05-11T07:56:24.323Z,6.85
2023-05-11T07:58:50.953Z,5.45
2023-05-11T08:01:17.586Z,5.90
2023-05-11T08:03:44.399Z,5.10
2023-05-11T08:06:12.187Z,5.60
2023-05-11T08:08:39.285Z,5.40
2023-05-11T08:11:06.090Z,5.07
2023-05-11T08:13:32.914Z,4.95
2023-05-11T08:18:18.307Z,6.43
2023-05-11T08:20:45.043Z,5.22
2023-05-11T08:23:17.067Z,5.47
2023-05-11T08:25:51.980Z,4.90
2023-05-11T08:28:22.233Z,5.90
2023-05-11T08:30:59.434Z,5.07
2023-05-11T08:33:37.437Z,5.00
2023-05-11T08:36:06.961Z,5.30
2023-05-11T08:38:35.169Z,5.00
2023-05-11T08:41:02.660Z,5.25
2023-05-11T08:43:29.502Z,4.65
2023-05-11T08:46:01.101Z,4.50
2023-05-11T08:48:29.123Z,4.28
2023-05-11T08:50:56.265Z,5.53
2023-05-11T08:53:23.286Z,4.45
2023-05-11T08:55:51.542Z,4.07
2023-05-11T08:58:22.104Z,4.55
2023-05-11T09:00:49.661Z,5.97
2023-05-11T09:03:17.765Z,4.50
2023-05-11T09:05:46.963Z,3.78
2023-05-11T09:08:15.923Z,4.20
2023-05-11T09:10:45.714Z,4.32
2023-05-11T09:13:12.727Z,4.30
2023-05-11T09:15:39.371Z,3.40
2023-05-11T09:18:09.000Z,3.15
2023-05-11T09:20:35.723Z,3.80
2023-05-11T09:23:05.564Z,3.30
2023-05-11T09:25:42.729Z,2.63
2023-05-11T09:31:37.583Z,3.30
2023-05-11T09:34:21.452Z,3.75
2023-05-11T09:36:54.047Z,4.10
2023-05-11T09:39:53.202Z,3.17
2023-05-11T09:42:30.173Z,3.22
2023-05-11T09:45:06.144Z,4.03
2023-05-11T09:47:52.920Z,3.20
2023-05-11T09:50:26.427Z,3.58
2023-05-11T09:52:53.412Z,3.80
2023-05-11T09:55:20.423Z,3.53
2023-05-11T09:57:55.039Z,3.45
2023-05-11T10:00:22.053Z,3.58
2023-05-11T10:03:00.974Z,4.03
2023-05-11T10:05:27.892Z,4.68
2023-05-11T10:08:05.556Z,3.50
2023-05-11T10:10:33.978Z,4.60
2023-05-11T10:13:05.520Z,4.20
2023-05-11T10:15:35.235Z,3.95
2023-05-11T10:18:02.290Z,3.90
2023-05-11T10:20:29.095Z,3.85
2023-05-11T10:22:56.119Z,4.10
2023-05-11T10:25:23.634Z,3.65
2023-05-11T10:27:51.638Z,3.15
2023-05-11T10:30:18.928Z,3.65
2023-05-11T10:32:47.210Z,3.58
2023-05-11T10:35:14.395Z,4.05
2023-05-11T10:37:45.699Z,4.30
2023-05-11T10:40:13.285Z,3.83
2023-05-11T10:42:43.516Z,3.95
2023-05-11T10:45:22.045Z,3.13
2023-05-11T10:47:56.315Z,3.08
2023-05-11T10:50:43.126Z,4.15
2023-05-11T10:53:19.112Z,4.22
2023-05-11T10:56:12.446Z,3.28
2023-05-11T10:59:16.398Z,3.03
2023-05-11T11:01:43.685Z,2.85
2023-05-11T11:04:12.638Z,2.28
2023-05-11T11:06:42.423Z,2.28
2023-05-11T11:09:14.501Z,2.80
2023-05-11T11:11:43.168Z,2.55
2023-05-11T11:14:10.450Z,3.33
2023-05-11T11:16:37.656Z,2.28
2023-05-11T11:19:32.029Z,2.47
2023-05-11T11:22:00.288Z,2.60
2023-05-11T11:24:53.691Z,2.92
2023-05-11T11:27:40.189Z,2.55
2023-05-11T11:30:26.897Z,2.63
2023-05-11T11:32:55.668Z,2.85
2023-05-11T11:35:55.682Z,2.28
2023-05-11T11:38:22.983Z,2.42
2023-05-11T11:40:53.743Z,2.95
2023-05-11T11:43:45.791Z,2.25
2023-05-11T11:48:54.378Z,2.72
2023-05-11T11:51:34.285Z,2.60
2023-05-11T11:54:01.182Z,2.85
2023-05-11T11:56:30.844Z,2.75
2023-05-11T11:59:02.809Z,2.25
2023-05-11T12:04:20.417Z,2.42
2023-05-11T12:06:58.865Z,3.17
2023-05-11T12:09:26.759Z,3.00
2023-05-11T12:11:53.673Z,2.40
2023-05-11T12:14:22.666Z,3.33
2023-05-11T12:17:03.437Z,2.38
2023-05-11T12:19:30.913Z,2.45
2023-05-11T12:21:57.468Z,2.60
2023-05-11T12:24:24.144Z,2.58
2023-05-11T12:26:50.777Z,2.53
2023-05-11T12:29:18.449Z,1.90
2023-05-11T12:31:46.779Z,2.45
2023-05-11T12:34:16.281Z,2.75
2023-05-11T12:36:45.147Z,2.85
2023-05-11T12:39:22.375Z,2.17
2023-05-11T12:41:50.412Z,2.10
2023-05-11T12:44:18.372Z,2.50
2023-05-11T12:46:47.082Z,2.30
2023-05-11T12:52:00.025Z,2.50
2023-05-11T12:54:32.653Z,2.33
2023-05-11T12:57:01.095Z,2.60
2023-05-11T12:59:40.788Z,1.98
2023-05-11T13:02:17.395Z,2.00
2023-05-11T13:04:45.490Z,2.30
2023-05-11T13:07:13.798Z,2.03
2023-05-11T13:09:41.169Z,2.30
2023-05-11T13:12:14.523Z,2.00
2023-05-11T13:14:41.847Z,2.38
2023-05-11T13:17:08.505Z,2.25
2023-05-11T13:19:35.324Z,2.40
2023-05-11T13:22:01.952Z,1.70
2023-05-11T13:24:28.527Z,2.38
2023-05-11T13:26:57.304Z,2.00
2023-05-11T13:29:24.226Z,2.03
2023-05-11T13:31:52.762Z,2.50
2023-05-11T13:34:20.128Z,1.92
2023-05-11T13:36:47.216Z,2.10
2023-05-11T13:39:14.245Z,2.33
2023-05-11T13:41:40.769Z,2.40
2023-05-11T13:44:07.831Z,2.35
2023-05-11T13:46:35.209Z,2.83
2023-05-11T13:49:01.800Z,3.08
2023-05-11T13:51:28.374Z,2.28
2023-05-11T13:53:55.169Z,2.08
2023-05-11T13:56:22.026Z,2.22
2023-05-11T13:58:49.004Z,2.45
2023-05-11T14:01:16.249Z,2.10
2023-05-11T14:03:45.546Z,2.53
2023-05-11T14:06:12.569Z,2.38
2023-05-11T14:08:39.149Z,2.40
2023-05-11T14:11:05.624Z,2.83
2023-05-11T14:13:32.246Z,2.47
2023-05-11T14:15:59.237Z,2.38
2023-05-11T14:18:26.280Z,1.83
2023-05-11T14:20:54.364Z,2.92
2023-05-11T14:23:21.411Z,2.30
2023-05-11T14:25:47.952Z,2.17
2023-05-11T14:28:14.711Z,2.25
2023-05-11T14:30:41.336Z,2.58
2023-05-11T14:33:08.698Z,2.00
2023-05-11T14:35:37.047Z,2.20
2023-05-11T14:38:05.087Z,2.75
2023-05-11T14:40:32.803Z,2.00
2023-05-11T14:42:59.495Z,2.28
2023-05-11T14:45:26.100Z,2.55
2023-05-11T14:47:53.035Z,2.60
2023-05-11T14:50:19.704Z,2.60
2023-05-11T14:52:47.008Z,3.00
2023-05-11T14:55:14.057Z,2.00
2023-05-11T14:57:40.936Z,2.33
2023-05-11T15:00:08.459Z,2.30
2023-05-11T15:02:35.146Z,2.35
2023-05-11T15:05:02.035Z,2.42
2023-05-11T15:07:28.629Z,2.53
2023-05-11T15:09:55.947Z,2.15
2023-05-11T15:12:23.416Z,2.45
2023-05-11T15:14:50.547Z,2.85
2023-05-11T15:17:17.135Z,2.50
2023-05-11T15:19:43.679Z,2.13
2023-05-11T15:22:10.418Z,2.75
2023-05-11T15:24:37.280Z,2.40
2023-05-11T15:27:03.968Z,2.92
2023-05-11T15:29:30.470Z,2.63
2023-05-11T15:31:57.050Z,2.78
2023-05-11T15:34:23.596Z,4.95
2023-05-11T15:36:50.487Z,3.10
2023-05-11T15:39:19.562Z,4.28
2023-05-11T15:41:46.585Z,4.43
2023-05-11T15:44:16.351Z,8.18
2023-05-11T15:46:46.210Z,2.80
2023-05-11T15:49:12.897Z,2.50
2023-05-11T15:51:39.571Z,2.75
2023-05-11T15:54:06.396Z,6.28
2023-05-11T15:56:33.000Z,3.85
2023-05-11T15:58:59.592Z,2.47
2023-05-11T16:01:26.182Z,2.80
2023-05-11T16:03:54.878Z,2.80
2023-05-11T16:06:21.384Z,2.95
2023-05-11T16:08:48.307Z,2.90
2023-05-11T16:11:14.831Z,2.72
2023-05-11T16:13:41.405Z,3.42
2023-05-11T16:16:11.394Z,2.40
2023-05-11T16:18:39.077Z,3.10
2023-05-11T16:21:06.572Z,3.15
2023-05-11T16:23:33.240Z,3.00
2023-05-11T16:26:00.680Z,20.90
2023-05-11T16:28:27.210Z,3.00
2023-05-11T16:30:57.851Z,3.03
2023-05-11T16:33:26.149Z,3.42
2023-05-11T16:35:55.534Z,3.28
2023-05-11T16:38:22.562Z,4.40
2023-05-11T16:40:49.917Z,2.70
2023-05-11T16:43:17.137Z,2.72
2023-05-11T16:45:44.113Z,3.20
2023-05-11T16:48:10.970Z,2.75
2023-05-11T16:50:37.565Z,3.90
2023-05-11T16:53:04.879Z,3.28
2023-05-11T16:55:31.393Z,3.60
2023-05-11T16:57:57.991Z,3.10
2023-05-11T17:00:25.190Z,2.83
2023-05-11T17:02:51.965Z,3.30
2023-05-11T17:05:19.055Z,2.50
2023-05-11T17:07:46.743Z,2.28
2023-05-11T17:10:13.645Z,3.25
2023-05-11T17:12:40.864Z,3.70
2023-05-11T17:15:09.774Z,3.17
2023-05-11T17:17:37.769Z,2.65
2023-05-11T17:20:07.661Z,2.92
2023-05-11T17:22:38.271Z,2.70
2023-05-11T17:25:06.272Z,3.17
2023-05-11T17:27:34.568Z,3.55
2023-05-11T17:30:01.113Z,3.33
2023-05-11T17:32:27.780Z,4.60
2023-05-11T17:34:54.536Z,3.75
2023-05-11T17:37:31.321Z,3.40
2023-05-11T17:40:02.460Z,3.45
2023-05-11T17:42:29.097Z,2.97
2023-05-11T17:44:55.951Z,4.60
2023-05-11T17:49:43.843Z,4.28
2023-05-11T17:52:10.676Z,4.15
2023-05-11T17:54:37.202Z,4.25
2023-05-11T17:57:07.026Z,5.40
2023-05-11T17:59:34.080Z,4.65
2023-05-11T18:02:01.261Z,5.88
2023-05-11T18:04:28.234Z,3.78
2023-05-11T18:06:54.736Z,4.05
2023-05-11T18:09:21.289Z,6.60
2023-05-11T18:11:47.928Z,5.20
2023-05-11T18:14:14.938Z,4.70
2023-05-11T18:16:41.458Z,6.75
2023-05-11T18:19:08.185Z,5.90
2023-05-11T18:21:35.056Z,5.90
2023-05-11T18:24:01.732Z,4.97
2023-05-11T18:26:28.286Z,5.88
2023-05-11T18:28:55.163Z,5.57
2023-05-11T18:31:22.169Z,3.92
2023-05-11T18:33:49.246Z,4.45
2023-05-11T18:36:16.130Z,4.93
2023-05-11T18:38:46.647Z,4.07
2023-05-11T18:41:13.251Z,4.80
2023-05-11T18:43:45.942Z,4.03
2023-05-11T18:46:12.523Z,3.45
2023-05-11T18:48:39.127Z,4.05
2023-05-11T18:51:06.676Z,4.00
2023-05-11T18:53:33.487Z,5.15
2023-05-11T18:56:00.567Z,4.63
2023-05-11T18:58:27.140Z,4.22
2023-05-11T19:00:53.932Z,4.72
2023-05-11T19:03:22.057Z,4.65
2023-05-11T19:05:49.305Z,6.05
2023-05-11T19:08:16.388Z,5.65
2023-05-11T19:10:47.871Z,6.20
2023-05-11T19:13:14.738Z,4.88
2023-05-11T19:15:41.354Z,5.13
2023-05-11T19:18:08.108Z,5.93
2023-05-11T19:20:35.147Z,4.78
2023-05-11T19:23:02.296Z,5.43
2023-05-11T19:25:29.092Z,5.30
2023-05-11T19:27:57.222Z,5.45
2023-05-11T19:30:24.667Z,5.20
2023-05-11T19:32:51.372Z,4.97
2023-05-11T19:35:18.948Z,5.00
2023-05-11T19:37:48.845Z,5.55
2023-05-11T19:42:46.137Z,5.90
2023-05-11T19:45:14.907Z,6.10
2023-05-11T19:47:41.680Z,5.70
2023-05-11T19:50:08.927Z,6.57
2023-05-11T19:52:36.655Z,7.15
2023-05-11T19:55:06.722Z,6.80
2023-05-11T19:57:37.170Z,5.82
2023-05-11T20:00:07.630Z,6.38
2023-05-11T20:02:35.775Z,5.75
2023-05-11T20:05:03.843Z,5.78
2023-05-11T20:07:30.467Z,5.22
2023-05-11T20:09:57.967Z,4.82
2023-05-11T20:12:24.481Z,4.68
2023-05-11T20:14:52.589Z,4.93
2023-05-11T20:17:19.121Z,4.65
2023-05-11T20:19:45.674Z,4.75
2023-05-11T20:22:12.230Z,5.30
2023-05-11T20:24:38.830Z,5.45
2023-05-11T20:27:09.422Z,7.07
2023-05-11T20:29:36.465Z,5.13
2023-05-11T20:32:03.361Z,5.38
2023-05-11T20:34:30.129Z,4.63
2023-05-11T20:36:56.776Z,5.40
2023-05-11T20:39:23.367Z,5.95
2023-05-11T20:41:52.740Z,4.85
2023-05-11T20:44:19.430Z,4.82
2023-05-11T20:46:47.210Z,5.45
2023-05-11T20:49:20.140Z,4.97
2023-05-11T20:51:54.348Z,5.95
2023-05-11T20:54:22.502Z,5.10
2023-05-11T20:56:49.917Z,4.93
2023-05-11T21:01:46.791Z,5.13
2023-05-11T21:04:13.392Z,4.85
2023-05-11T21:06:40.359Z,5.70
2023-05-11T21:09:06.909Z,5.90
2023-05-11T21:11:33.524Z,7.65
2023-05-11T21:14:00.158Z,6.75
2023-05-11T21:16:26.753Z,8.93
2023-05-11T21:18:54.107Z,8.80
2023-05-11T21:21:20.762Z,7.20
2023-05-11T21:23:47.340Z,6.50
2023-05-11T21:26:17.188Z,7.32
2023-05-11T21:28:43.701Z,8.00
2023-05-11T21:31:10.356Z,6.97
2023-05-11T21:33:37.447Z,6.25
2023-05-11T21:36:05.808Z,6.88
2023-05-11T21:38:32.548Z,5.25
2023-05-11T21:40:59.085Z,7.47
2023-05-11T21:43:25.683Z,8.52
2023-05-11T21:45:52.440Z,8.07
2023-05-11T21:48:19.474Z,8.90
2023-05-11T21:50:52.250Z,8.77
2023-05-11T21:53:18.969Z,9.10
2023-05-11T21:55:45.500Z,6.97
2023-05-11T21:58:12.473Z,7.35
2023-05-11T22:00:39.393Z,7.22
2023-05-11T22:03:06.558Z,9.07
2023-05-11T22:05:33.181Z,9.05
2023-05-11T22:08:13.343Z,6.95
2023-05-11T22:10:42.906Z,6.50
2023-05-11T22:13:09.526Z,6.57
2023-05-11T22:15:36.240Z,6.07
2023-05-11T22:18:06.017Z,6.50
2023-05-11T22:20:33.156Z,7.25
2023-05-11T22:22:59.796Z,6.15
2023-05-11T22:25:28.427Z,5.82
2023-05-11T22:27:54.981Z,6.28
2023-05-11T22:30:23.743Z,7.07
2023-05-11T22:32:50.525Z,6.43
2023-05-11T22:35:17.182Z,5.35
2023-05-11T22:37:43.801Z,6.35
2023-05-11T22:40:10.969Z,5.47
2023-05-11T22:42:37.949Z,6.38
2023-05-11T22:45:05.063Z,5.75
2023-05-11T22:47:31.792Z,5.57
2023-05-11T22:49:58.921Z,5.65
2023-05-11T22:52:25.419Z,6.57
2023-05-11T22:54:57.786Z,6.38
2023-05-11T22:57:26.180Z,6.00
2023-05-11T22:59:52.657Z,5.93
2023-05-11T23:02:19.376Z,6.50
2023-05-11T23:04:53.528Z,5.05
2023-05-11T23:07:20.098Z,5.57
2023-05-11T23:09:47.009Z,6.72
2023-05-11T23:12:13.584Z,5.57
2023-05-11T23:14:40.193Z,5.88
2023-05-11T23:17:06.883Z,6.10
2023-05-11T23:19:33.682Z,6.20
2023-05-11T23:22:00.598Z,6.10
2023-05-11T23:24:28.784Z,5.70
2023-05-11T23:26:55.444Z,6.50
2023-05-11T23:29:22.067Z,7.05
2023-05-11T23:31:48.947Z,5.35
2023-05-11T23:34:15.749Z,5.68
2023-05-11T23:36:42.941Z,5.78
2023-05-11T23:39:09.617Z,7.32
2023-05-11T23:41:36.348Z,5.57
2023-05-11T23:44:03.301Z,5.03
2023-05-11T23:46:29.992Z,5.10
2023-05-11T23:48:56.494Z,5.95
2023-05-11T23:51:23.206Z,6.15
2023-05-11T23:53:49.769Z,5.03
2023-05-11T23:56:16.385Z,5.85
2023-05-11T23:58:45.553Z,6.25
